Terminal Aerodrome Forecast
Issued by NWS

Home | Current Version | Previous Version | Text Only | Print | Product List | Glossary On
Versions: 1 2 3 4 5 6 7 8 9 10 11 12 13 14 15 16 17 18 19 20
000
FTUS46 KMTR 301733
TAFSNS
TAF
KSNS 301733Z 3018/3118 30005KT P6SM SKC
     FM302000 29013KT P6SM SKC
     FM310300 29009KT P6SM BKN010
     FM310600 30003KT P6SM OVC006
     FM311300 14003KT P6SM OVC005
     FM311700 29003KT P6SM FEW008=

USA.gov is the U.S. government's official web portal to all federal, state and local government web resources and services.